createdAt,value
2023-05-22T00:00:09.445Z,100.00
2023-05-22T00:02:38.897Z,100.00
2023-05-22T00:05:07.827Z,100.00
2023-05-22T00:07:35.558Z,100.00
2023-05-22T00:10:03.319Z,100.00
2023-05-22T00:12:31.047Z,100.00
2023-05-22T00:15:00.261Z,100.00
2023-05-22T00:17:30.793Z,100.00
2023-05-22T00:20:03.826Z,100.00
2023-05-22T00:22:35.559Z,100.00
2023-05-22T00:25:03.886Z,100.00
2023-05-22T00:27:31.760Z,100.00
2023-05-22T00:30:01.284Z,100.00
2023-05-22T00:32:29.191Z,100.00
2023-05-22T00:34:57.002Z,100.00
2023-05-22T00:37:25.443Z,100.00
2023-05-22T00:39:53.374Z,100.00
2023-05-22T00:42:21.256Z,100.00
2023-05-22T00:44:49.889Z,100.00
2023-05-22T00:47:18.925Z,100.00
2023-05-22T00:49:47.682Z,100.00
2023-05-22T00:52:17.761Z,100.00
2023-05-22T00:54:45.588Z,100.00
2023-05-22T00:57:13.850Z,100.00
2023-05-22T00:59:44.866Z,100.00
2023-05-22T01:02:13.496Z,100.00
2023-05-22T01:04:45.553Z,100.00
2023-05-22T01:07:13.322Z,100.00
2023-05-22T01:09:41.235Z,100.00
2023-05-22T01:12:17.456Z,100.00
2023-05-22T01:14:54.249Z,100.00
2023-05-22T01:17:34.868Z,100.00
2023-05-22T01:20:15.310Z,100.00
2023-05-22T01:23:27.425Z,100.00
2023-05-22T01:26:08.730Z,100.00
2023-05-22T01:28:49.498Z,100.00
2023-05-22T01:31:20.319Z,100.00
2023-05-22T01:33:52.427Z,100.00
2023-05-22T01:36:23.409Z,100.00
2023-05-22T01:38:52.921Z,100.00
2023-05-22T01:41:21.589Z,100.00
2023-05-22T01:43:49.467Z,100.00
2023-05-22T01:46:18.754Z,100.00
2023-05-22T01:48:46.549Z,100.00
2023-05-22T01:51:19.296Z,100.00
2023-05-22T01:53:57.701Z,100.00
2023-05-22T01:56:31.825Z,100.00
2023-05-22T01:59:10.570Z,100.00
2023-05-22T02:01:42.503Z,100.00
2023-05-22T02:04:13.839Z,100.00
2023-05-22T02:06:42.497Z,100.00
2023-05-22T02:09:11.847Z,100.00
2023-05-22T02:11:41.270Z,100.00
2023-05-22T02:14:12.199Z,100.00
2023-05-22T02:16:42.274Z,100.00
2023-05-22T02:19:15.459Z,100.00
2023-05-22T02:21:43.820Z,100.00
2023-05-22T02:24:12.082Z,100.00
2023-05-22T02:26:40.553Z,100.00
2023-05-22T02:29:08.596Z,100.00
2023-05-22T02:31:36.511Z,100.00
2023-05-22T02:34:06.695Z,100.00
2023-05-22T02:36:35.128Z,100.00
2023-05-22T02:39:02.858Z,100.00
2023-05-22T02:41:30.788Z,100.00
2023-05-22T02:44:06.123Z,100.00
2023-05-22T02:46:33.936Z,100.00
2023-05-22T02:49:03.692Z,100.00
2023-05-22T02:51:40.281Z,100.00
2023-05-22T02:54:07.941Z,100.00
2023-05-22T02:56:35.665Z,100.00
2023-05-22T02:59:03.753Z,100.00
2023-05-22T03:01:31.496Z,100.00
2023-05-22T03:03:59.452Z,100.00
2023-05-22T03:06:27.230Z,100.00
2023-05-22T03:08:56.504Z,100.00
2023-05-22T03:11:24.355Z,100.00
2023-05-22T03:13:54.268Z,100.00
2023-05-22T03:16:22.262Z,100.00
2023-05-22T03:18:51.829Z,100.00
2023-05-22T03:21:20.793Z,100.00
2023-05-22T03:23:49.764Z,100.00
2023-05-22T03:26:20.367Z,100.00
2023-05-22T03:28:48.223Z,100.00
2023-05-22T03:31:16.045Z,100.00
2023-05-22T03:33:45.412Z,100.00
2023-05-22T03:36:13.205Z,100.00
2023-05-22T03:38:41.417Z,100.00
2023-05-22T03:41:09.367Z,100.00
2023-05-22T03:43:39.413Z,100.00
2023-05-22T03:46:09.638Z,100.00
2023-05-22T03:48:37.691Z,100.00
2023-05-22T03:51:08.097Z,100.00
2023-05-22T03:53:35.806Z,100.00
2023-05-22T03:56:04.191Z,100.00
2023-05-22T03:58:31.979Z,100.00
2023-05-22T04:01:01.383Z,100.00
2023-05-22T04:03:29.816Z,100.00
2023-05-22T04:05:58.629Z,100.00
2023-05-22T04:08:26.418Z,100.00
2023-05-22T04:10:54.652Z,100.00
2023-05-22T04:13:22.441Z,100.00
2023-05-22T04:15:52.717Z,100.00
2023-05-22T04:18:23.542Z,100.00
2023-05-22T04:20:51.874Z,100.00
2023-05-22T04:23:21.748Z,100.00
2023-05-22T04:25:49.604Z,100.00
2023-05-22T04:28:18.280Z,100.00
2023-05-22T04:30:46.565Z,100.00
2023-05-22T04:33:14.398Z,100.00
2023-05-22T04:35:44.350Z,100.00
2023-05-22T04:38:12.105Z,100.00
2023-05-22T04:40:40.574Z,100.00
2023-05-22T04:43:08.710Z,100.00
2023-05-22T04:45:36.514Z,100.00
2023-05-22T04:48:04.415Z,100.00
2023-05-22T04:50:32.832Z,100.00
2023-05-22T04:53:04.482Z,100.00
2023-05-22T04:55:34.210Z,100.00
2023-05-22T04:58:02.918Z,100.00
2023-05-22T05:00:31.190Z,100.00
2023-05-22T05:03:00.640Z,100.00
2023-05-22T05:05:28.907Z,100.00
2023-05-22T05:07:57.205Z,100.00
2023-05-22T05:10:26.828Z,100.00
2023-05-22T05:12:56.059Z,100.00
2023-05-22T05:15:24.553Z,100.00
2023-05-22T05:17:52.527Z,100.00
2023-05-22T05:20:20.971Z,100.00
2023-05-22T05:22:48.815Z,100.00
2023-05-22T05:25:16.659Z,100.00
2023-05-22T05:27:46.615Z,100.00
2023-05-22T05:30:14.745Z,100.00
2023-05-22T05:32:42.563Z,100.00
2023-05-22T05:35:10.945Z,100.00
2023-05-22T05:37:38.876Z,100.00
2023-05-22T05:40:08.275Z,100.00
2023-05-22T05:42:36.258Z,100.00
2023-05-22T05:45:08.084Z,100.00
2023-05-22T05:47:35.829Z,100.00
2023-05-22T05:50:03.747Z,100.00
2023-05-22T05:52:32.737Z,100.00
2023-05-22T05:55:00.889Z,100.00
2023-05-22T05:57:28.892Z,100.00
2023-05-22T05:59:57.136Z,100.00
2023-05-22T06:02:26.337Z,99.61
2023-05-22T06:04:55.969Z,98.71
2023-05-22T06:07:24.424Z,98.74
2023-05-22T06:09:52.554Z,97.44
2023-05-22T06:12:20.304Z,97.13
2023-05-22T06:14:48.500Z,97.88
2023-05-22T06:17:16.253Z,96.13
2023-05-22T06:19:45.638Z,94.19
2023-05-22T06:22:13.374Z,94.56
2023-05-22T06:24:41.178Z,91.57
2023-05-22T06:27:09.392Z,92.30
2023-05-22T06:29:37.068Z,91.75
2023-05-22T06:32:05.050Z,90.45
2023-05-22T06:34:32.801Z,88.18
2023-05-22T06:37:01.924Z,88.40
2023-05-22T06:39:31.138Z,86.48
2023-05-22T06:41:59.803Z,87.03
2023-05-22T06:44:27.545Z,86.29
2023-05-22T06:46:55.526Z,83.15
2023-05-22T06:49:23.240Z,80.90
2023-05-22T06:51:51.184Z,79.56
2023-05-22T06:54:21.464Z,77.62
2023-05-22T06:56:49.391Z,75.36
2023-05-22T06:59:17.246Z,74.56
2023-05-22T07:01:45.185Z,72.36
2023-05-22T07:04:13.411Z,70.61
2023-05-22T07:06:41.679Z,68.79
2023-05-22T07:09:10.600Z,67.84
2023-05-22T07:11:39.896Z,66.27
2023-05-22T07:14:07.963Z,63.14
2023-05-22T07:16:36.905Z,60.80
2023-05-22T07:19:04.818Z,52.64
2023-05-22T07:21:32.693Z,47.46
2023-05-22T07:24:02.989Z,43.92
2023-05-22T07:26:31.359Z,40.85
2023-05-22T07:29:01.106Z,40.23
2023-05-22T07:31:28.937Z,34.84
2023-05-22T07:33:56.673Z,38.23
2023-05-22T07:36:24.452Z,38.31
2023-05-22T07:38:52.177Z,40.13
2023-05-22T07:41:19.943Z,36.84
2023-05-22T07:43:47.684Z,35.25
2023-05-22T07:46:16.774Z,33.36
2023-05-22T07:48:45.264Z,32.43
2023-05-22T07:51:13.787Z,30.44
2023-05-22T07:53:41.601Z,28.93
2023-05-22T07:56:11.252Z,29.54
2023-05-22T07:58:40.077Z,27.75
2023-05-22T08:01:09.597Z,29.82
2023-05-22T08:03:39.135Z,32.95
2023-05-22T08:06:07.811Z,29.84
2023-05-22T08:08:35.571Z,29.97
2023-05-22T08:11:04.712Z,26.82
2023-05-22T08:13:32.998Z,27.99
2023-05-22T08:16:01.513Z,30.09
2023-05-22T08:18:30.143Z,28.16
2023-05-22T08:21:00.664Z,30.09
2023-05-22T08:23:28.443Z,30.98
2023-05-22T08:25:56.248Z,29.95
2023-05-22T08:28:24.198Z,30.11
2023-05-22T08:30:52.034Z,29.61
2023-05-22T08:33:20.101Z,28.48
2023-05-22T08:35:47.879Z,27.46
2023-05-22T08:38:18.320Z,26.93
2023-05-22T08:40:50.171Z,25.34
2023-05-22T08:43:18.031Z,24.90
2023-05-22T08:45:45.975Z,27.32
2023-05-22T08:48:14.694Z,28.06
2023-05-22T08:50:43.997Z,27.91
2023-05-22T08:53:14.852Z,24.87
2023-05-22T08:55:43.971Z,25.21
2023-05-22T08:58:12.510Z,24.54
2023-05-22T09:00:41.170Z,29.11
2023-05-22T09:03:10.158Z,29.21
2023-05-22T09:05:39.212Z,26.36
2023-05-22T09:08:19.223Z,28.01
2023-05-22T09:10:50.025Z,25.74
2023-05-22T09:13:26.230Z,27.21
2023-05-22T09:15:54.362Z,27.81
2023-05-22T09:18:22.577Z,25.56
2023-05-22T09:20:51.684Z,24.53
2023-05-22T09:23:19.875Z,26.02
2023-05-22T09:25:49.093Z,25.64
2023-05-22T09:28:16.831Z,25.15
2023-05-22T09:30:46.772Z,27.78
2023-05-22T09:33:14.503Z,26.95
2023-05-22T09:35:43.912Z,26.96
2023-05-22T09:38:13.104Z,29.06
2023-05-22T09:40:41.419Z,25.87
2023-05-22T09:43:11.393Z,26.37
2023-05-22T09:45:40.212Z,25.19
2023-05-22T09:48:10.590Z,24.68
2023-05-22T09:50:40.099Z,24.52
2023-05-22T09:53:09.341Z,25.20
2023-05-22T09:55:38.077Z,26.68
2023-05-22T09:58:09.214Z,28.36
2023-05-22T10:00:39.156Z,28.31
2023-05-22T10:03:12.271Z,29.33
2023-05-22T10:05:45.067Z,29.29
2023-05-22T10:08:18.465Z,28.66
2023-05-22T10:10:51.410Z,29.58
2023-05-22T10:13:20.310Z,29.58
2023-05-22T10:15:50.783Z,29.38
2023-05-22T10:18:19.166Z,29.52
2023-05-22T10:20:47.812Z,30.38
2023-05-22T10:23:16.290Z,31.82
2023-05-22T10:25:45.320Z,28.71
2023-05-22T10:28:20.425Z,29.84
2023-05-22T10:30:57.485Z,29.04
2023-05-22T10:33:29.619Z,28.46
2023-05-22T10:36:00.262Z,28.83
2023-05-22T10:38:47.008Z,28.82
2023-05-22T10:41:15.351Z,27.95
2023-05-22T10:43:43.818Z,29.39
2023-05-22T10:46:14.189Z,28.77
2023-05-22T10:48:47.557Z,28.29
2023-05-22T10:51:16.175Z,29.20
2023-05-22T10:53:45.311Z,28.07
2023-05-22T10:56:14.306Z,28.49
2023-05-22T10:58:45.771Z,28.64
2023-05-22T11:01:16.825Z,28.85
2023-05-22T11:03:58.672Z,28.39
2023-05-22T11:06:38.365Z,28.62
2023-05-22T11:09:19.810Z,29.73
2023-05-22T11:11:48.054Z,29.10
2023-05-22T11:14:18.740Z,28.55
2023-05-22T11:16:48.074Z,29.51
2023-05-22T11:21:48.290Z,29.47
2023-05-22T11:24:18.073Z,28.85
2023-05-22T11:27:01.643Z,29.65
2023-05-22T11:29:30.664Z,29.14
2023-05-22T11:32:00.767Z,28.65
2023-05-22T11:34:29.119Z,28.48
2023-05-22T11:37:00.657Z,28.86
2023-05-22T11:39:28.733Z,28.37
2023-05-22T11:41:56.562Z,28.84
2023-05-22T11:44:24.408Z,27.61
2023-05-22T11:46:52.687Z,28.92
2023-05-22T11:49:24.082Z,28.04
2023-05-22T11:51:53.029Z,27.42
2023-05-22T11:54:22.260Z,27.42
2023-05-22T11:56:50.098Z,27.55
2023-05-22T11:59:17.974Z,26.97
2023-05-22T12:01:45.738Z,27.50
2023-05-22T12:04:13.947Z,26.91
2023-05-22T12:06:43.508Z,27.64
2023-05-22T12:09:11.626Z,28.32
2023-05-22T12:11:39.664Z,28.31
2023-05-22T12:14:07.734Z,28.83
2023-05-22T12:16:37.157Z,28.83
2023-05-22T12:19:09.041Z,28.29
2023-05-22T12:21:37.626Z,27.91
2023-05-22T12:24:07.517Z,29.19
2023-05-22T12:26:35.323Z,28.82
2023-05-22T12:29:03.462Z,28.89
2023-05-22T12:31:35.906Z,29.75
2023-05-22T12:34:05.822Z,29.77
2023-05-22T12:36:36.195Z,30.41
2023-05-22T12:39:10.415Z,29.93
2023-05-22T12:41:38.327Z,30.61
2023-05-22T12:44:06.337Z,30.47
2023-05-22T12:46:35.114Z,29.94
2023-05-22T12:49:03.497Z,30.29
2023-05-22T12:51:33.220Z,30.37
2023-05-22T12:54:01.878Z,30.74
2023-05-22T12:56:31.782Z,30.85
2023-05-22T12:58:59.667Z,30.43
2023-05-22T13:01:27.658Z,31.36
2023-05-22T13:03:55.504Z,31.56
2023-05-22T13:06:23.278Z,32.15
2023-05-22T13:08:51.070Z,33.27
2023-05-22T13:11:20.135Z,32.04
2023-05-22T13:13:49.298Z,32.79
2023-05-22T13:16:17.074Z,31.81
2023-05-22T13:18:44.970Z,32.44
2023-05-22T13:21:13.556Z,32.30
2023-05-22T13:23:41.333Z,32.28
2023-05-22T13:26:09.324Z,32.41
2023-05-22T13:28:37.033Z,32.54
2023-05-22T13:31:06.719Z,32.43
2023-05-22T13:33:34.690Z,32.36
2023-05-22T13:36:02.464Z,32.11
2023-05-22T13:38:32.862Z,32.89
2023-05-22T13:41:00.902Z,32.79
2023-05-22T13:43:28.831Z,32.88
2023-05-22T13:45:56.823Z,32.93
2023-05-22T13:48:29.300Z,33.24
2023-05-22T13:50:57.048Z,33.60
2023-05-22T13:53:24.876Z,33.42
2023-05-22T13:55:52.640Z,33.21
2023-05-22T13:58:20.827Z,32.71
2023-05-22T14:00:48.696Z,32.80
2023-05-22T14:03:17.858Z,32.89
2023-05-22T14:05:47.157Z,32.88
2023-05-22T14:08:14.938Z,33.46
2023-05-22T14:10:43.032Z,33.46
2023-05-22T14:13:11.052Z,33.06
2023-05-22T14:15:39.069Z,33.06
2023-05-22T14:18:07.034Z,32.83
2023-05-22T14:20:34.876Z,32.96
2023-05-22T14:23:03.983Z,32.55
2023-05-22T14:25:31.915Z,32.44
2023-05-22T14:27:59.891Z,32.86
2023-05-22T14:30:27.734Z,32.44
2023-05-22T14:32:55.504Z,31.65
2023-05-22T14:35:25.063Z,32.73
2023-05-22T14:37:52.877Z,31.23
2023-05-22T14:40:22.452Z,30.97
2023-05-22T14:42:52.512Z,30.66
2023-05-22T14:45:21.853Z,31.02
2023-05-22T14:47:49.704Z,32.21
2023-05-22T14:50:20.390Z,33.34
2023-05-22T14:52:49.120Z,31.94
2023-05-22T14:55:17.928Z,32.27
2023-05-22T14:57:47.077Z,32.79
2023-05-22T15:00:16.213Z,33.97
2023-05-22T15:02:44.030Z,32.85
2023-05-22T15:05:12.928Z,33.97
2023-05-22T15:07:45.571Z,33.71
2023-05-22T15:10:18.253Z,33.09
2023-05-22T15:12:48.468Z,33.28
2023-05-22T15:15:23.769Z,32.86
2023-05-22T15:17:51.615Z,33.08
2023-05-22T15:20:20.275Z,33.12
2023-05-22T15:22:48.442Z,33.13
2023-05-22T15:25:16.256Z,33.70
2023-05-22T15:27:44.449Z,33.70
2023-05-22T15:30:16.838Z,33.38
2023-05-22T15:32:45.383Z,33.51
2023-05-22T15:35:16.179Z,34.04
2023-05-22T15:37:44.351Z,34.86
2023-05-22T15:40:16.558Z,34.79
2023-05-22T15:42:47.736Z,33.62
2023-05-22T15:45:18.195Z,33.52
2023-05-22T15:47:47.917Z,33.61
2023-05-22T15:50:21.459Z,33.25
2023-05-22T15:52:50.726Z,34.43
2023-05-22T15:55:18.848Z,34.08
2023-05-22T15:57:50.924Z,33.38
2023-05-22T16:00:23.972Z,32.69
2023-05-22T16:02:51.854Z,32.66
2023-05-22T16:05:19.966Z,32.65
2023-05-22T16:07:47.766Z,32.19
2023-05-22T16:10:15.522Z,32.38
2023-05-22T16:12:43.480Z,33.26
2023-05-22T16:15:12.019Z,32.56
2023-05-22T16:17:41.164Z,33.15
2023-05-22T16:20:10.086Z,33.85
2023-05-22T16:22:48.028Z,33.34
2023-05-22T16:25:16.859Z,33.71
2023-05-22T16:27:44.723Z,33.62
2023-05-22T16:30:14.835Z,34.31
2023-05-22T16:32:44.351Z,35.45
2023-05-22T16:35:12.572Z,36.14
2023-05-22T16:37:40.720Z,37.22
2023-05-22T16:40:10.218Z,37.19
2023-05-22T16:42:39.267Z,37.98
2023-05-22T16:45:08.560Z,37.39
2023-05-22T16:47:36.327Z,37.44
2023-05-22T16:50:07.030Z,38.72
2023-05-22T16:52:35.832Z,39.82
2023-05-22T16:55:03.574Z,39.80
2023-05-22T16:57:31.414Z,40.76
2023-05-22T17:00:02.416Z,40.28
2023-05-22T17:02:30.354Z,39.64
2023-05-22T17:04:58.334Z,39.75
2023-05-22T17:07:31.722Z,39.59
2023-05-22T17:10:01.891Z,36.15
2023-05-22T17:12:29.657Z,36.38
2023-05-22T17:14:57.374Z,36.68
2023-05-22T17:17:25.184Z,37.97
2023-05-22T17:19:53.397Z,38.65
2023-05-22T17:22:21.465Z,37.98
2023-05-22T17:24:51.703Z,38.47
2023-05-22T17:27:34.386Z,38.28
2023-05-22T17:30:04.752Z,38.70
2023-05-22T17:32:32.998Z,38.66
2023-05-22T17:35:02.807Z,39.14
2023-05-22T17:37:30.624Z,39.66
2023-05-22T17:40:02.490Z,38.68
2023-05-22T17:42:30.264Z,38.73
2023-05-22T17:45:00.392Z,38.94
2023-05-22T17:47:29.106Z,39.06
2023-05-22T17:49:58.919Z,39.09
2023-05-22T17:52:26.915Z,38.19
2023-05-22T17:54:55.994Z,38.69
2023-05-22T17:57:25.954Z,39.45
2023-05-22T17:59:56.193Z,40.12
2023-05-22T18:02:24.694Z,40.29
2023-05-22T18:04:52.526Z,40.69
2023-05-22T18:07:20.353Z,40.37
2023-05-22T18:09:48.055Z,39.72
2023-05-22T18:12:31.036Z,39.70
2023-05-22T18:15:00.932Z,39.69
2023-05-22T18:17:28.763Z,40.26
2023-05-22T18:19:56.487Z,40.96
2023-05-22T18:22:25.562Z,41.87
2023-05-22T18:24:53.401Z,42.51
2023-05-22T18:27:21.256Z,45.28
2023-05-22T18:29:50.408Z,45.31
2023-05-22T18:32:19.864Z,46.81
2023-05-22T18:34:48.654Z,47.44
2023-05-22T18:37:16.513Z,48.44
2023-05-22T18:39:44.240Z,47.15
2023-05-22T18:42:13.318Z,47.12
2023-05-22T18:44:41.138Z,46.89
2023-05-22T18:47:08.992Z,47.35
2023-05-22T18:49:38.266Z,49.01
2023-05-22T18:52:06.549Z,49.25
2023-05-22T18:54:34.255Z,50.10
2023-05-22T18:57:01.995Z,51.24
2023-05-22T18:59:29.696Z,52.35
2023-05-22T19:01:57.413Z,54.45
2023-05-22T19:04:25.130Z,53.35
2023-05-22T19:06:54.253Z,55.52
2023-05-22T19:09:22.185Z,56.20
2023-05-22T19:11:50.068Z,54.92
2023-05-22T19:14:17.773Z,56.40
2023-05-22T19:16:45.667Z,55.49
2023-05-22T19:19:14.796Z,56.31
2023-05-22T19:21:42.674Z,56.51
2023-05-22T19:24:11.813Z,54.25
2023-05-22T19:26:39.553Z,52.41
2023-05-22T19:29:07.268Z,49.91
2023-05-22T19:31:35.725Z,50.08
2023-05-22T19:34:03.657Z,49.88
2023-05-22T19:36:31.775Z,49.63
2023-05-22T19:38:59.523Z,49.87
2023-05-22T19:41:28.681Z,50.37
2023-05-22T19:43:56.386Z,50.25
2023-05-22T19:46:24.226Z,50.57
2023-05-22T19:48:52.240Z,51.17
2023-05-22T19:51:21.577Z,51.82
2023-05-22T19:53:52.155Z,52.53
2023-05-22T19:56:20.004Z,52.99
2023-05-22T19:58:49.108Z,53.97
2023-05-22T20:01:19.194Z,54.38
2023-05-22T20:03:47.329Z,54.79
2023-05-22T20:06:15.451Z,55.58
2023-05-22T20:08:44.187Z,55.63
2023-05-22T20:11:13.405Z,56.14
2023-05-22T20:13:41.067Z,57.43
2023-05-22T20:16:14.795Z,57.44
2023-05-22T20:18:44.392Z,58.62
2023-05-22T20:21:14.499Z,59.32
2023-05-22T20:26:12.056Z,61.61
2023-05-22T20:28:40.110Z,61.80
2023-05-22T20:31:15.707Z,64.01
2023-05-22T20:33:43.614Z,66.56
2023-05-22T20:36:15.176Z,66.94
2023-05-22T20:38:45.465Z,65.74
2023-05-22T20:41:14.842Z,67.97
2023-05-22T20:43:44.868Z,67.36
2023-05-22T20:46:16.285Z,67.91
2023-05-22T20:48:54.210Z,67.95
2023-05-22T20:51:32.662Z,69.17
2023-05-22T20:54:02.352Z,69.86
2023-05-22T20:56:37.833Z,71.49
2023-05-22T20:59:05.837Z,71.59
2023-05-22T21:01:35.987Z,73.22
2023-05-22T21:04:05.169Z,73.53
2023-05-22T21:06:33.169Z,74.46
2023-05-22T21:09:04.145Z,77.71
2023-05-22T21:11:32.285Z,81.19
2023-05-22T21:14:00.464Z,80.63
2023-05-22T21:16:29.335Z,82.45
2023-05-22T21:19:02.279Z,82.37
2023-05-22T21:21:30.163Z,84.22
2023-05-22T21:23:58.735Z,83.11
2023-05-22T21:26:27.823Z,82.13
2023-05-22T21:28:58.174Z,84.68
2023-05-22T21:31:26.384Z,85.76
2023-05-22T21:33:55.093Z,86.13
2023-05-22T21:36:26.114Z,86.03
2023-05-22T21:38:56.487Z,89.94
2023-05-22T21:41:27.535Z,86.78
2023-05-22T21:43:56.294Z,86.03
2023-05-22T21:46:24.335Z,85.76
2023-05-22T21:48:56.176Z,86.14
2023-05-22T21:51:26.850Z,86.35
2023-05-22T21:53:54.961Z,87.34
2023-05-22T21:56:24.839Z,88.82
2023-05-22T21:58:52.938Z,89.11
2023-05-22T22:01:22.132Z,91.75
2023-05-22T22:03:51.299Z,92.03
2023-05-22T22:06:19.129Z,90.89
2023-05-22T22:08:48.989Z,90.04
2023-05-22T22:11:16.806Z,91.06
2023-05-22T22:13:44.710Z,96.43
2023-05-22T22:16:12.482Z,96.02
2023-05-22T22:18:40.912Z,98.81
2023-05-22T22:21:08.620Z,98.60
2023-05-22T22:23:36.396Z,97.28
2023-05-22T22:26:05.574Z,98.68
2023-05-22T22:28:33.350Z,99.38
2023-05-22T22:31:01.436Z,98.89
2023-05-22T22:33:30.431Z,97.25
2023-05-22T22:35:58.678Z,97.07
2023-05-22T22:38:26.807Z,96.45
2023-05-22T22:40:54.753Z,97.06
2023-05-22T22:43:23.872Z,97.46
2023-05-22T22:45:55.800Z,98.64
2023-05-22T22:48:23.962Z,97.33
2023-05-22T22:50:52.453Z,100.00
2023-05-22T22:53:20.352Z,100.00
2023-05-22T22:55:49.312Z,100.00
2023-05-22T22:58:18.849Z,100.00
2023-05-22T23:00:48.210Z,100.00
2023-05-22T23:03:16.030Z,100.00
2023-05-22T23:05:45.376Z,100.00
2023-05-22T23:08:13.465Z,100.00
2023-05-22T23:10:41.509Z,100.00
2023-05-22T23:13:09.254Z,100.00
2023-05-22T23:15:39.478Z,100.00
2023-05-22T23:18:08.866Z,100.00
2023-05-22T23:20:37.110Z,100.00
2023-05-22T23:23:04.795Z,100.00
2023-05-22T23:25:32.941Z,100.00
2023-05-22T23:28:01.815Z,100.00
2023-05-22T23:30:29.821Z,100.00
2023-05-22T23:32:58.637Z,100.00
2023-05-22T23:35:28.004Z,100.00
2023-05-22T23:37:56.234Z,100.00
2023-05-22T23:40:26.018Z,100.00
2023-05-22T23:42:53.764Z,100.00
2023-05-22T23:45:21.692Z,100.00
2023-05-22T23:47:49.649Z,100.00
2023-05-22T23:50:17.479Z,100.00
2023-05-22T23:52:48.139Z,100.00
2023-05-22T23:55:16.258Z,100.00
2023-05-22T23:57:46.002Z,100.00
